Time;durP1;ratioP1;P1;durP2;ratioP2;P2;SDS_P1;SDS_P2;PMS_P1;PMS_P2;Temp;Humidity;BMP_temperature;BMP_pressure;BME280_temperature;BME280_humidity;BME280_pressure;Samples;Min_cycle;Max_cycle;Signal;HPM_P1;HPM_P2
2021/04/11 00:02:42;;;;;;;14.13;11.48;;;;;;;10.65;83.11;100831.06;4743100;30;20048;-78
2021/04/11 00:05:48;;;;;;;16.30;13.95;;;;;;;10.66;83.25;100827.41;4744421;30;20048;-76
2021/04/11 00:08:52;;;;;;;19.65;17.42;;;;;;;10.71;83.18;100818.03;4744008;30;20052;-79
2021/04/11 00:11:56;;;;;;;20.73;15.40;;;;;;;10.75;83.27;100806.06;4741425;30;20053;-78
2021/04/11 00:15:01;;;;;;;14.23;12.40;;;;;;;10.76;83.08;100807.75;4741844;30;20401;-81
2021/04/11 00:18:06;;;;;;;19.20;12.15;;;;;;;10.74;82.83;100801.66;4744045;30;20416;-77
2021/04/11 00:21:10;;;;;;;13.73;12.10;;;;;;;10.74;83.54;100792.75;4741989;30;20044;-77
2021/04/11 00:24:14;;;;;;;14.65;13.10;;;;;;;10.72;83.68;100802.75;4740845;30;20052;-80
2021/04/11 00:27:19;;;;;;;14.35;12.57;;;;;;;10.77;84.14;100804.09;4741849;30;20490;-79
2021/04/11 00:30:24;;;;;;;15.80;12.85;;;;;;;10.77;84.47;100806.78;4742888;30;20057;-76
2021/04/11 00:33:38;;;;;;;15.68;12.68;;;;;;;10.75;84.75;100795.31;4744315;30;20052;-80
2021/04/11 00:36:43;;;;;;;19.35;13.40;;;;;;;10.74;84.82;100790.06;4742753;30;20048;-79
2021/04/11 00:39:47;;;;;;;15.90;13.80;;;;;;;10.53;85.15;100775.69;4743470;30;20462;-81
2021/04/11 00:42:57;;;;;;;15.40;13.80;;;;;;;10.44;85.51;100769.25;4744198;30;20048;-78
2021/04/11 00:46:04;;;;;;;17.23;14.00;;;;;;;10.31;86.52;100771.19;4743311;30;20048;-79
2021/04/11 00:49:17;;;;;;;16.73;15.00;;;;;;;10.19;87.05;100754.28;4743897;30;20041;-79
2021/04/11 00:52:21;;;;;;;16.77;14.73;;;;;;;10.04;87.79;100739.34;4742004;30;20462;-78
2021/04/11 00:55:27;;;;;;;15.88;14.23;;;;;;;10.00;88.07;100731.69;4742274;30;20048;-77
2021/04/11 00:58:35;;;;;;;19.02;14.68;;;;;;;10.02;88.05;100724.38;4744606;30;20044;-80
2021/04/11 01:01:41;;;;;;;18.73;15.45;;;;;;;9.99;88.65;100721.91;4741753;30;20040;-76
2021/04/11 01:04:47;;;;;;;17.08;15.25;;;;;;;9.97;89.08;100711.31;4742977;30;20056;-80
2021/04/11 01:07:52;;;;;;;18.23;15.52;;;;;;;9.85;89.32;100712.28;4744112;30;20064;-79
2021/04/11 01:11:15;;;;;;;20.60;16.08;;;;;;;9.72;89.89;100715.09;4740891;30;20071;-81
2021/04/11 01:14:21;;;;;;;18.20;16.38;;;;;;;9.68;90.28;100716.28;4741808;30;20410;-79
2021/04/11 01:17:27;;;;;;;20.48;17.23;;;;;;;9.69;90.34;100715.31;4742681;30;20060;-78
2021/04/11 01:20:35;;;;;;;20.65;18.38;;;;;;;9.61;90.48;100715.06;4729939;30;20049;-76
2021/04/11 01:23:50;;;;;;;19.90;17.85;;;;;;;9.62;90.69;100716.78;4741421;30;20052;-79
2021/04/11 01:26:55;;;;;;;21.23;18.73;;;;;;;9.65;90.29;100716.53;4739308;30;20045;-77
2021/04/11 01:30:12;;;;;;;21.15;17.50;;;;;;;9.72;90.07;100728.50;4741366;30;20033;-80
2021/04/11 01:33:21;;;;;;;18.45;16.50;;;;;;;9.83;90.07;100731.16;4739620;30;20049;-79
2021/04/11 01:36:29;;;;;;;20.00;15.45;;;;;;;9.92;89.38;100726.94;4742747;30;20122;-77
2021/04/11 01:39:37;;;;;;;19.15;17.08;;;;;;;9.93;89.43;100736.66;4743876;30;20055;-80
2021/04/11 01:42:44;;;;;;;18.20;16.05;;;;;;;9.99;89.28;100729.97;4740369;30;20048;-79
2021/04/11 01:45:49;;;;;;;18.17;16.17;;;;;;;9.96;88.97;100719.47;4742424;30;20051;-78
2021/04/11 01:48:57;;;;;;;16.73;15.02;;;;;;;9.97;88.81;100724.75;4740110;30;20072;-78
2021/04/11 01:52:23;;;;;;;15.35;13.85;;;;;;;9.99;88.01;100724.59;4740391;30;20055;-78
2021/04/11 01:55:35;;;;;;;16.77;14.50;;;;;;;9.99;87.67;100714.72;4723559;30;20502;-78
2021/04/11 01:58:42;;;;;;;17.38;15.65;;;;;;;9.95;88.19;100713.25;4707861;30;20154;-80
2021/04/11 02:02:06;;;;;;;17.55;15.73;;;;;;;9.91;88.45;100701.06;4666886;30;20157;-79
2021/04/11 02:05:18;;;;;;;22.40;16.55;;;;;;;9.93;88.70;100693.75;4668265;30;20057;-78
2021/04/11 02:08:27;;;;;;;18.60;15.02;;;;;;;9.87;88.47;100682.69;4666969;30;20062;-80
2021/04/11 02:11:38;;;;;;;17.25;15.10;;;;;;;9.80;88.79;100685.00;4666851;30;20050;-77
2021/04/11 02:14:42;;;;;;;18.27;14.93;;;;;;;9.83;89.00;100684.75;4670326;30;20547;-79
2021/04/11 02:17:27;;;;;;;20.17;15.68;;;;;;;9.80;89.21;100688.50;4675969;30;20066;-81
2021/04/11 02:20:33;;;;;;;18.40;14.68;;;;;;;9.74;88.47;100680.13;4668212;30;20053;-78
2021/04/11 02:23:38;;;;;;;19.25;14.95;;;;;;;9.76;88.41;100689.75;4656729;30;20090;-78
2021/04/11 02:26:42;;;;;;;18.08;15.77;;;;;;;9.84;88.65;100681.09;4664882;30;20523;-78
2021/04/11 02:29:48;;;;;;;17.45;15.43;;;;;;;9.80;88.89;100683.16;4640961;30;20050;-78
2021/04/11 02:32:56;;;;;;;18.15;15.05;;;;;;;9.77;88.94;100693.28;4652772;30;20144;-78
2021/04/11 02:36:00;;;;;;;18.25;16.33;;;;;;;9.81;89.26;100692.91;4668134;30;20152;-80
2021/04/11 02:39:16;;;;;;;16.88;15.07;;;;;;;9.86;89.46;100686.31;4725111;30;20048;-78
2021/04/11 02:42:27;;;;;;;17.15;15.38;;;;;;;9.90;89.38;100690.47;4743058;30;20060;-78
2021/04/11 02:45:36;;;;;;;16.45;14.50;;;;;;;9.90;89.03;100683.28;4745322;30;20048;-79
2021/04/11 02:48:43;;;;;;;17.20;13.77;;;;;;;9.91;89.10;100689.50;4744623;30;20052;-77
2021/04/11 02:52:02;;;;;;;18.05;15.45;;;;;;;9.88;88.92;100692.41;4742157;30;20398;-80
2021/04/11 02:55:11;;;;;;;15.80;14.13;;;;;;;9.90;89.18;100685.94;4744018;30;20426;-80
2021/04/11 02:58:19;;;;;;;17.17;15.48;;;;;;;9.92;89.14;100693.88;4741932;30;20045;-78
2021/04/11 03:01:32;;;;;;;16.33;14.73;;;;;;;9.96;88.99;100692.66;4743724;30;20052;-78
2021/04/11 03:04:36;;;;;;;16.52;14.02;;;;;;;9.97;88.98;100687.19;4743800;30;20048;-78
2021/04/11 03:07:47;;;;;;;16.67;14.98;;;;;;;9.99;88.51;100684.38;4742646;30;20052;-78
2021/04/11 03:11:17;;;;;;;19.15;14.82;;;;;;;10.00;88.50;100683.41;4741692;30;20413;-77
2021/04/11 03:14:31;;;;;;;17.05;15.38;;;;;;;9.98;88.48;100678.16;4742857;30;20052;-78
2021/04/11 03:17:37;;;;;;;16.65;14.80;;;;;;;10.03;88.55;100675.09;4740904;30;20056;-79
2021/04/11 03:20:43;;;;;;;17.10;15.52;;;;;;;10.05;88.71;100679.38;4742216;30;20045;-79
2021/04/11 03:23:53;;;;;;;17.77;15.88;;;;;;;10.00;88.97;100665.47;4744400;30;20044;-78
2021/04/11 03:27:15;;;;;;;16.35;14.70;;;;;;;10.05;89.28;100665.13;4744080;30;20417;-76
2021/04/11 03:30:50;;;;;;;16.58;14.88;;;;;;;10.05;89.16;100665.13;4742089;30;20057;-77
2021/04/11 03:33:59;;;;;;;16.77;15.03;;;;;;;10.09;88.84;100662.06;4761046;30;20551;-79
2021/04/11 03:37:08;;;;;;;17.77;15.90;;;;;;;9.95;89.23;100659.63;4749653;30;20278;-79
2021/04/11 03:40:16;;;;;;;17.85;16.00;;;;;;;10.00;88.88;100657.41;4750592;30;20047;-79
2021/04/11 03:43:31;;;;;;;18.13;15.55;;;;;;;9.99;88.95;100658.41;4748547;30;20484;-79
2021/04/11 03:46:45;;;;;;;16.55;14.95;;;;;;;10.06;88.93;100650.72;4761021;30;20539;-76
2021/04/11 03:50:29;;;;;;;17.08;15.35;;;;;;;10.06;89.42;100645.34;4750686;30;20052;-78
2021/04/11 03:54:06;;;;;;;17.08;15.30;;;;;;;10.10;88.76;100638.75;4757897;30;20048;-77
2021/04/11 03:57:52;;;;;;;17.73;15.93;;;;;;;10.11;89.01;100635.09;4760421;30;20060;-78
2021/04/11 04:01:13;;;;;;;16.80;15.10;;;;;;;10.10;89.27;100628.03;4759467;30;20505;-80
2021/04/11 04:04:24;;;;;;;16.90;15.07;;;;;;;10.14;89.12;100625.03;4757315;30;20052;-81
2021/04/11 04:07:49;;;;;;;18.05;16.23;;;;;;;10.18;89.19;100617.56;4746649;30;20051;-78
2021/04/11 04:11:13;;;;;;;16.92;15.13;;;;;;;10.15;89.27;100623.19;4747621;30;20032;-78
2021/04/11 04:14:46;;;;;;;18.42;16.63;;;;;;;10.11;89.19;100606.47;4743975;30;20052;-76
2021/04/11 04:18:06;;;;;;;18.55;16.63;;;;;;;10.04;89.25;100605.25;4739339;30;20048;-78
2021/04/11 04:21:42;;;;;;;18.38;16.50;;;;;;;10.02;89.32;100606.38;4742208;30;20099;-78
2021/04/11 04:24:56;;;;;;;19.17;17.38;;;;;;;10.06;89.49;100606.00;4742404;30;20401;-78
2021/04/11 04:28:21;;;;;;;19.45;17.48;;;;;;;10.07;89.86;100612.22;4743473;30;20048;-79
2021/04/11 04:31:38;;;;;;;19.23;17.42;;;;;;;10.06;89.63;100608.66;4743310;30;20048;-78
2021/04/11 04:35:06;;;;;;;18.60;16.80;;;;;;;10.07;89.95;100613.06;4742135;30;20052;-79
2021/04/11 04:38:33;;;;;;;17.88;16.38;;;;;;;10.10;89.87;100611.94;4736770;30;20053;-78
2021/04/11 04:41:49;;;;;;;18.65;16.85;;;;;;;10.10;89.92;100618.16;4740752;30;20064;-78
2021/04/11 04:45:20;;;;;;;19.10;17.27;;;;;;;10.19;89.49;100616.59;4743616;30;20048;-80
2021/04/11 04:48:47;;;;;;;18.30;16.60;;;;;;;10.15;89.46;100613.31;4743804;30;20045;-80
2021/04/11 04:51:56;;;;;;;16.98;15.40;;;;;;;10.21;89.26;100622.69;4744049;30;20047;-78
2021/04/11 04:55:13;;;;;;;18.30;16.60;;;;;;;10.18;89.34;100621.09;4743143;30;20405;-78
2021/04/11 04:58:33;;;;;;;17.08;15.27;;;;;;;10.17;89.19;100619.38;4740406;30;20049;-77
2021/04/11 05:01:44;;;;;;;17.20;15.60;;;;;;;10.19;89.14;100627.34;4738744;30;20045;-78
2021/04/11 05:04:59;;;;;;;18.63;16.73;;;;;;;10.15;89.50;100620.50;4740526;30;20052;-76
2021/04/11 05:08:13;;;;;;;18.67;16.65;;;;;;;10.15;89.68;100620.50;4741741;30;20053;-78
2021/04/11 05:11:25;;;;;;;16.58;15.07;;;;;;;10.17;89.62;100610.50;4739510;30;20044;-79
2021/04/11 05:14:38;;;;;;;17.17;15.65;;;;;;;10.19;89.77;100613.91;4750336;30;20052;-78
2021/04/11 05:17:55;;;;;;;15.80;14.40;;;;;;;10.19;89.58;100608.56;4752555;30;20489;-79
2021/04/11 05:21:10;;;;;;;16.67;15.18;;;;;;;10.20;89.20;100611.09;4737273;30;20041;-78
2021/04/11 05:24:24;;;;;;;15.70;14.20;;;;;;;10.21;89.42;100603.91;4740304;30;20044;-76
2021/04/11 05:27:44;;;;;;;15.15;13.75;;;;;;;10.20;89.28;100605.72;4723141;30;20056;-78
2021/04/11 05:31:04;;;;;;;16.33;14.93;;;;;;;10.14;89.39;100605.41;4735661;30;20501;-77
2021/04/11 05:34:14;;;;;;;16.40;14.90;;;;;;;10.18;89.35;100604.16;4738856;30;20049;-79
2021/04/11 05:37:33;;;;;;;15.75;14.13;;;;;;;10.19;89.49;100604.06;4720508;30;20048;-78
2021/04/11 05:40:46;;;;;;;15.48;13.93;;;;;;;10.19;89.45;100600.50;4720497;30;20061;-81
2021/04/11 05:44:02;;;;;;;16.30;14.77;;;;;;;10.19;89.86;100597.81;4742041;30;20044;-79
2021/04/11 05:47:18;;;;;;;16.13;14.63;;;;;;;10.21;89.67;100598.53;4736046;30;20044;-79
2021/04/11 05:50:41;;;;;;;15.00;13.60;;;;;;;10.23;90.19;100605.50;4743130;30;20430;-76
2021/04/11 05:53:49;;;;;;;13.93;12.73;;;;;;;10.22;89.56;100608.31;4743620;30;20048;-80
2021/04/11 05:57:03;;;;;;;14.18;13.02;;;;;;;10.23;89.60;100601.94;4732493;30;20048;-79
2021/04/11 06:00:31;;;;;;;14.82;13.50;;;;;;;10.28;89.80;100597.06;4754089;30;20052;-77
2021/04/11 06:03:45;;;;;;;13.85;12.65;;;;;;;10.29;89.83;100605.00;4718401;30;20045;-78
2021/04/11 06:07:01;;;;;;;14.85;13.50;;;;;;;10.29;89.78;100605.00;4718121;30;20414;-79
2021/04/11 06:10:16;;;;;;;14.60;13.27;;;;;;;10.17;89.81;100611.34;4718780;30;20049;-80
2021/04/11 06:13:43;;;;;;;14.45;13.15;;;;;;;10.20;90.05;100602.19;4719217;30;20486;-79
2021/04/11 06:16:49;;;;;;;15.38;13.93;;;;;;;10.10;90.66;100599.38;4742020;30;20052;-77
2021/04/11 06:19:54;;;;;;;15.15;13.85;;;;;;;10.09;90.53;100599.53;4738106;30;20513;-79
2021/04/11 06:23:17;;;;;;;14.95;13.50;;;;;;;10.11;91.25;100594.88;4738067;30;20049;-78
2021/04/11 06:26:37;;;;;;;15.00;13.75;;;;;;;10.17;90.99;100603.28;4738086;30;20057;-78
2021/04/11 06:30:03;;;;;;;15.48;14.07;;;;;;;10.21;91.00;100603.91;4735450;30;20049;-79
2021/04/11 06:33:16;;;;;;;15.13;13.93;;;;;;;10.27;91.20;100611.47;4731799;30;20045;-78
2021/04/11 06:36:28;;;;;;;16.20;14.70;;;;;;;10.28;91.39;100611.31;4737022;30;20498;-80
2021/04/11 06:39:37;;;;;;;16.80;15.18;;;;;;;10.35;91.44;100608.97;4720424;30;20053;-78
2021/04/11 06:42:51;;;;;;;15.43;13.98;;;;;;;10.39;91.22;100615.81;4730338;30;20060;-78
2021/04/11 06:46:17;;;;;;;16.50;15.05;;;;;;;10.41;90.84;100606.66;4737558;30;20056;-78
2021/04/11 06:49:55;;;;;;;15.50;14.10;;;;;;;10.48;90.86;100603.44;4726672;30;20049;-79
2021/04/11 06:53:37;;;;;;;15.98;14.50;;;;;;;10.48;90.88;100600.75;4738213;30;20413;-78
2021/04/11 06:57:11;;;;;;;16.13;14.80;;;;;;;10.50;90.96;100596.97;4719567;30;20057;-79
2021/04/11 07:00:31;;;;;;;16.55;15.05;;;;;;;10.54;91.18;100601.13;4718608;30;20045;-79
2021/04/11 07:03:54;;;;;;;17.17;15.68;;;;;;;10.60;90.96;100600.59;4718578;30;20057;-77
2021/04/11 07:07:30;;;;;;;53.53;48.03;;;;;;;10.64;91.12;100603.88;4718642;30;20053;-78
2021/04/11 07:10:50;;;;;;;21.70;19.65;;;;;;;10.65;90.99;100606.44;4717555;30;20045;-79
2021/04/11 07:14:18;;;;;;;19.13;17.42;;;;;;;10.66;91.26;100600.09;4719744;30;20045;-78
2021/04/11 07:18:01;;;;;;;17.83;16.23;;;;;;;10.68;91.12;100606.19;4719438;30;20045;-78
2021/04/11 07:21:40;;;;;;;18.25;16.58;;;;;;;10.72;91.65;100607.59;4752929;30;20052;-78
2021/04/11 07:24:47;;;;;;;17.33;15.75;;;;;;;10.78;91.76;100612.47;4727109;30;20045;-78
2021/04/11 07:28:17;;;;;;;18.73;16.80;;;;;;;10.83;91.67;100612.09;4742240;30;20477;-78
2021/04/11 07:31:47;;;;;;;18.27;16.48;;;;;;;10.68;92.31;100605.31;4752499;30;20048;-78
2021/04/11 07:35:02;;;;;;;16.60;14.27;;;;;;;10.54;93.44;100609.19;4752431;30;20529;-79
2021/04/11 07:38:30;;;;;;;15.55;13.95;;;;;;;10.47;94.40;100604.44;4752488;30;20052;-78
2021/04/11 07:41:53;;;;;;;15.30;13.70;;;;;;;10.42;94.77;100610.16;4751734;30;20560;-79
2021/04/11 07:45:09;;;;;;;16.90;15.17;;;;;;;10.43;95.20;100614.56;4752199;30;20081;-79
2021/04/11 07:48:32;;;;;;;15.73;13.57;;;;;;;10.40;95.20;100623.72;4742227;30;20045;-78
2021/04/11 07:51:53;;;;;;;16.35;13.40;;;;;;;10.35;95.55;100619.72;4721828;30;20060;-80
2021/04/11 07:55:16;;;;;;;17.48;14.80;;;;;;;10.40;95.87;100631.78;4729195;30;20049;-77
2021/04/11 07:58:26;;;;;;;35.00;31.45;;;;;;;10.41;95.79;100619.22;4735527;30;20438;-80
2021/04/11 08:01:57;;;;;;;28.80;24.55;;;;;;;10.45;96.11;100626.88;4735462;30;20048;-79
2021/04/11 08:05:32;;;;;;;15.80;13.93;;;;;;;10.44;96.28;100633.22;4734354;30;20049;-78
2021/04/11 08:09:06;;;;;;;15.75;12.50;;;;;;;10.49;95.98;100632.88;4740839;30;20052;-79
2021/04/11 08:12:42;;;;;;;15.20;13.68;;;;;;;10.49;95.99;100645.41;4727755;30;20053;-80
2021/04/11 08:16:02;;;;;;;17.75;12.55;;;;;;;10.51;96.45;100636.25;4725836;30;20049;-76
2021/04/11 08:19:26;;;;;;;15.07;12.30;;;;;;;10.54;96.46;100646.75;4732053;30;20053;-79
2021/04/11 08:23:06;;;;;;;14.68;13.23;;;;;;;10.53;96.91;100647.72;4735610;30;20049;-78
2021/04/11 08:26:14;;;;;;;13.35;11.95;;;;;;;10.54;96.86;100644.06;4729049;30;20048;-77
2021/04/11 08:29:46;;;;;;;15.15;13.65;;;;;;;10.61;96.51;100647.94;4745290;30;20497;-77
2021/04/11 08:33:14;;;;;;;15.75;13.20;;;;;;;10.68;96.70;100645.59;4735424;30;20048;-76
2021/04/11 08:36:50;;;;;;;13.73;12.25;;;;;;;10.61;96.79;100650.63;4729862;30;20048;-78
2021/04/11 08:40:11;;;;;;;18.15;14.57;;;;;;;10.67;96.83;100647.41;4734349;30;20048;-77
2021/04/11 08:43:47;;;;;;;15.02;12.88;;;;;;;10.74;96.76;100650.47;4732524;30;20485;-78
2021/04/11 08:47:16;;;;;;;15.77;12.55;;;;;;;10.74;96.63;100653.16;4733479;30;20057;-77
2021/04/11 08:50:34;;;;;;;15.77;13.05;;;;;;;10.79;96.68;100662.50;4728668;30;20417;-78
2021/04/11 08:54:06;;;;;;;22.40;19.42;;;;;;;10.82;96.79;100662.25;4726810;30;20052;-77
2021/04/11 08:57:31;;;;;;;14.00;12.57;;;;;;;10.81;96.69;100665.91;4735180;30;20053;-78
2021/04/11 09:00:50;;;;;;;16.77;14.77;;;;;;;10.87;96.76;100662.72;4720208;30;20303;-77
2021/04/11 09:04:19;;;;;;;15.20;13.65;;;;;;;10.88;96.49;100663.56;4727608;30;20048;-78
2021/04/11 09:07:43;;;;;;;15.02;13.07;;;;;;;10.89;96.31;100673.31;4732019;30;20048;-78
2021/04/11 09:11:04;;;;;;;16.15;11.45;;;;;;;10.89;96.02;100676.84;4732837;30;20393;-77
2021/04/11 09:14:44;;;;;;;13.77;11.90;;;;;;;10.98;96.40;100684.16;4731462;30;20044;-78
2021/04/11 09:18:24;;;;;;;15.23;11.40;;;;;;;11.03;96.36;100681.09;4734914;30;20048;-77
2021/04/11 09:21:53;;;;;;;11.93;10.68;;;;;;;11.15;96.49;100687.25;4729664;30;20497;-78
2021/04/11 09:25:12;;;;;;;17.13;12.85;;;;;;;11.14;96.51;100683.69;4720117;30;20053;-77
2021/04/11 09:28:35;;;;;;;12.85;10.07;;;;;;;11.24;95.26;100694.50;4735515;30;20057;-78
2021/04/11 09:32:00;;;;;;;18.05;15.75;;;;;;;11.32;95.52;100687.50;4728631;30;20049;-78
2021/04/11 09:35:28;;;;;;;30.50;27.08;;;;;;;11.34;95.46;100696.28;4732827;30;20052;-84
2021/04/11 09:39:10;;;;;;;16.15;11.52;;;;;;;11.41;94.70;100697.47;4735523;30;20045;-76
2021/04/11 09:42:33;;;;;;;15.77;9.45;;;;;;;11.50;94.34;100690.47;4730348;30;20057;-77
2021/04/11 09:45:51;;;;;;;11.15;8.70;;;;;;;11.48;94.29;100697.81;4720780;30;20505;-78
2021/04/11 09:48:59;;;;;;;10.38;8.98;;;;;;;11.55;93.77;100701.66;4733427;30;20056;-78
2021/04/11 09:52:33;;;;;;;10.25;9.25;;;;;;;11.69;93.95;100701.34;4733769;30;20055;-78
2021/04/11 09:56:14;;;;;;;10.98;8.80;;;;;;;11.79;93.54;100699.56;4733889;30;20051;-78
2021/04/11 09:59:33;;;;;;;9.98;8.98;;;;;;;11.79;93.28;100707.63;4735009;30;20056;-77
2021/04/11 10:02:47;;;;;;;9.68;8.57;;;;;;;11.87;93.36;100702.44;4734854;30;20056;-77
2021/04/11 10:06:29;;;;;;;11.95;8.95;;;;;;;11.94;92.52;100711.69;4735002;30;20059;-77
2021/04/11 10:09:42;;;;;;;8.48;7.05;;;;;;;12.00;91.58;100721.06;4734805;30;20417;-78
2021/04/11 10:12:55;;;;;;;8.75;7.47;;;;;;;12.13;91.95;100711.75;4735017;30;20060;-77
2021/04/11 10:16:19;;;;;;;9.55;7.78;;;;;;;12.20;91.54;100710.22;4735087;30;20410;-77
2021/04/11 10:20:07;;;;;;;9.35;7.25;;;;;;;12.27;91.64;100716.75;4737978;30;20052;-78
2021/04/11 10:24:00;;;;;;;9.02;7.65;;;;;;;12.26;91.29;100716.91;4753868;30;20055;-78
2021/04/11 10:27:24;;;;;;;10.18;7.10;;;;;;;12.18;90.54;100714.88;4719019;30;20064;-78
2021/04/11 10:30:31;;;;;;;8.52;6.50;;;;;;;12.23;90.43;100714.47;4718709;30;20052;-78
2021/04/11 10:33:48;;;;;;;6.70;6.05;;;;;;;12.28;90.31;100718.47;4688977;30;20505;-78
2021/04/11 10:37:17;;;;;;;9.40;6.50;;;;;;;12.48;89.90;100721.22;4718561;30;20161;-78
2021/04/11 10:41:12;;;;;;;7.47;6.50;;;;;;;12.64;89.71;100726.94;4698531;30;20453;-79
2021/04/11 10:44:49;;;;;;;12.15;8.23;;;;;;;12.75;89.50;100721.41;4712552;30;20509;-78
2021/04/11 10:48:24;;;;;;;9.77;6.45;;;;;;;12.48;90.16;100732.84;4709106;30;20053;-78
2021/04/11 10:51:40;;;;;;;7.70;6.85;;;;;;;12.37;90.74;100733.78;4700591;30;20131;-78
2021/04/11 10:55:14;;;;;;;7.63;6.88;;;;;;;12.27;90.33;100740.97;4707085;30;20064;-78
2021/04/11 10:58:55;;;;;;;6.28;5.68;;;;;;;12.22;89.53;100734.31;4712137;30;20486;-78
2021/04/11 11:02:33;;;;;;;5.85;5.25;;;;;;;12.13;89.41;100744.03;4670786;30;20065;-78
2021/04/11 11:06:29;;;;;;;6.32;5.72;;;;;;;11.99;90.52;100730.97;4734851;30;20068;-78
2021/04/11 11:09:47;;;;;;;6.70;6.10;;;;;;;12.00;90.23;100732.66;4736424;30;20055;-77
2021/04/11 11:13:01;;;;;;;7.88;7.07;;;;;;;11.95;90.82;100740.25;4737347;30;20059;-78
2021/04/11 11:16:32;;;;;;;8.18;7.32;;;;;;;11.93;90.90;100738.69;4737177;30;20055;-79
2021/04/11 11:20:05;;;;;;;7.28;6.57;;;;;;;11.87;90.97;100733.88;4733736;30;20056;-78
2021/04/11 11:23:24;;;;;;;6.37;5.77;;;;;;;11.83;90.73;100738.66;4737189;30;20047;-78
2021/04/11 11:26:43;;;;;;;6.55;5.88;;;;;;;11.86;91.32;100741.06;4736972;30;20069;-78
2021/04/11 11:30:05;;;;;;;11.38;10.27;;;;;;;11.94;91.34;100737.72;4736254;30;20056;-78
2021/04/11 11:33:27;;;;;;;7.18;6.10;;;;;;;12.02;90.89;100741.47;4734488;30;20413;-78
2021/04/11 11:37:10;;;;;;;6.43;5.82;;;;;;;12.06;90.29;100742.03;4736113;30;20052;-79
2021/04/11 11:40:24;;;;;;;6.07;5.55;;;;;;;12.08;90.33;100750.81;4729501;30;20445;-78
2021/04/11 11:44:03;;;;;;;5.60;5.10;;;;;;;12.09;90.40;100745.31;4732579;30;20056;-80
2021/04/11 11:47:25;;;;;;;6.47;5.88;;;;;;;12.01;89.73;100755.03;4719335;30;20295;-79
2021/04/11 11:50:35;;;;;;;8.20;5.68;;;;;;;11.98;90.72;100753.47;4719321;30;20060;-78
2021/04/11 11:54:12;;;;;;;6.05;4.90;;;;;;;11.97;90.40;100754.47;4719182;30;20056;-79
2021/04/11 11:57:40;;;;;;;6.32;5.30;;;;;;;11.98;90.56;100757.97;4719146;30;20390;-78
2021/04/11 12:00:54;;;;;;;5.75;5.25;;;;;;;11.92;90.53;100767.47;4722515;30;20410;-78
2021/04/11 12:04:14;;;;;;;5.35;4.85;;;;;;;11.95;90.67;100769.84;4731432;30;20060;-77
2021/04/11 12:07:31;;;;;;;5.38;4.88;;;;;;;11.95;91.20;100761.78;4735132;30;20071;-76
2021/04/11 12:10:58;;;;;;;14.20;12.80;;;;;;;11.98;91.28;100758.84;4735027;30;20084;-75
2021/04/11 12:14:10;;;;;;;20.00;17.85;;;;;;;11.99;91.43;100759.69;4736172;30;20048;-76
2021/04/11 12:17:40;;;;;;;6.30;5.70;;;;;;;12.06;91.86;100774.31;4735171;30;20048;-76
2021/04/11 12:20:54;;;;;;;6.90;5.60;;;;;;;12.08;91.81;100777.72;4720169;30;20063;-76
2021/04/11 12:24:08;;;;;;;6.75;5.68;;;;;;;12.09;91.90;100764.16;4735884;30;20071;-78
2021/04/11 12:27:15;;;;;;;6.32;5.43;;;;;;;12.15;91.91;100760.91;4743790;30;20521;-78
2021/04/11 12:30:36;;;;;;;6.50;5.35;;;;;;;12.20;91.64;100776.63;4732965;30;20056;-78
2021/04/11 12:33:53;;;;;;;5.15;4.65;;;;;;;12.20;91.50;100766.72;4733505;30;20180;-79
2021/04/11 12:37:04;;;;;;;4.70;4.30;;;;;;;12.26;91.42;100758.13;4733899;30;20157;-76
2021/04/11 12:40:29;;;;;;;4.50;3.83;;;;;;;12.26;91.14;100766.22;4734079;30;20063;-79
2021/04/11 12:43:43;;;;;;;5.30;4.80;;;;;;;12.24;91.53;100773.56;4735646;30;20298;-78
2021/04/11 12:47:03;;;;;;;7.32;6.63;;;;;;;12.05;91.87;100761.84;4735542;30;20063;-78
2021/04/11 12:50:18;;;;;;;11.20;8.55;;;;;;;11.73;92.12;100772.69;4734903;30;20063;-79
2021/04/11 12:53:50;;;;;;;12.07;8.93;;;;;;;11.63;92.89;100777.13;4733350;30;20055;-79
2021/04/11 12:57:20;;;;;;;13.95;10.13;;;;;;;11.51;93.64;100770.97;4735540;30;20049;-79
2021/04/11 13:00:33;;;;;;;11.80;10.52;;;;;;;11.49;94.48;100764.00;4735478;30;20056;-78
2021/04/11 13:03:53;;;;;;;12.40;11.23;;;;;;;11.45;94.87;100773.34;4735568;30;20049;-79
2021/04/11 13:07:06;;;;;;;13.48;11.00;;;;;;;11.45;95.01;100781.41;4735584;30;20052;-79
2021/04/11 13:10:33;;;;;;;13.63;10.25;;;;;;;11.46;94.72;100781.25;4735452;30;20045;-78
2021/04/11 13:14:04;;;;;;;13.13;11.25;;;;;;;11.42;94.96;100785.19;4735612;30;20040;-77
2021/04/11 13:17:34;;;;;;;13.85;10.30;;;;;;;11.39;94.89;100782.75;4735573;30;20049;-78
2021/04/11 13:21:06;;;;;;;11.68;10.40;;;;;;;11.36;95.01;100782.16;4735011;30;20048;-77
2021/04/11 13:24:34;;;;;;;12.15;10.18;;;;;;;11.37;94.95;100786.56;4735037;30;20505;-78
2021/04/11 13:27:46;;;;;;;16.73;12.02;;;;;;;11.37;95.34;100795.47;4717147;30;20049;-76
2021/04/11 13:31:11;;;;;;;14.63;10.88;;;;;;;11.42;94.82;100789.72;4717439;30;20052;-76
2021/04/11 13:34:27;;;;;;;12.18;10.70;;;;;;;11.43;95.44;100788.75;4718220;30;20053;-76
2021/04/11 13:37:53;;;;;;;13.77;10.77;;;;;;;11.36;95.58;100787.53;4717664;30;20049;-78
2021/04/11 13:41:08;;;;;;;14.20;11.55;;;;;;;11.38;95.32;100785.59;4717763;30;20398;-79
2021/04/11 13:44:15;;;;;;;15.55;11.20;;;;;;;11.35;95.20;100784.00;4717953;30;20402;-80
2021/04/11 13:47:20;;;;;;;13.05;11.23;;;;;;;11.41;95.26;100788.84;4717833;30;20061;-79
2021/04/11 13:50:44;;;;;;;15.63;12.00;;;;;;;11.47;95.26;100790.19;4717869;30;20466;-78
2021/04/11 13:54:06;;;;;;;14.15;11.73;;;;;;;11.43;95.60;100791.44;4720828;30;20061;-79
2021/04/11 13:57:20;;;;;;;14.55;11.80;;;;;;;11.34;95.55;100784.13;4721016;30;20048;-79
2021/04/11 14:00:37;;;;;;;14.68;10.70;;;;;;;11.25;95.75;100798.34;4733311;30;20045;-77
2021/04/11 14:03:41;;;;;;;13.80;11.20;;;;;;;11.24;96.36;100793.94;4738786;30;20394;-77
2021/04/11 14:07:12;;;;;;;14.68;11.77;;;;;;;11.32;96.20;100799.53;4721034;30;20113;-76
2021/04/11 14:10:27;;;;;;;16.10;11.25;;;;;;;11.25;96.25;100798.34;4720918;30;20057;-77
2021/04/11 14:13:40;;;;;;;13.50;12.10;;;;;;;11.24;95.98;100805.53;4723720;30;20056;-77
2021/04/11 14:16:59;;;;;;;13.07;10.27;;;;;;;11.21;96.35;100807.66;4738107;30;20044;-78
2021/04/11 14:20:11;;;;;;;17.35;11.05;;;;;;;11.17;95.83;100801.66;4738240;30;20053;-78
2021/04/11 14:23:42;;;;;;;17.95;11.73;;;;;;;11.21;96.43;100802.28;4738110;30;20045;-77
2021/04/11 14:27:09;;;;;;;15.40;10.45;;;;;;;11.24;96.17;100799.31;4737094;30;20053;-79
2021/04/11 14:30:36;;;;;;;20.83;10.43;;;;;;;11.23;95.80;100797.63;4737766;30;20057;-77
2021/04/11 14:33:56;;;;;;;15.80;12.38;;;;;;;11.32;95.74;100799.53;4727247;30;20052;-78
2021/04/11 14:37:38;;;;;;;19.85;12.90;;;;;;;11.36;96.29;100792.91;4737758;30;20052;-78
2021/04/11 14:40:50;;;;;;;16.33;12.43;;;;;;;11.25;96.42;100790.28;4734616;30;20053;-79
2021/04/11 14:43:59;;;;;;;15.80;10.68;;;;;;;11.22;95.85;100796.75;4737745;30;20052;-79
2021/04/11 14:47:11;;;;;;;14.95;11.00;;;;;;;11.24;96.05;100802.84;4737227;30;20056;-80
2021/04/11 14:50:35;;;;;;;97.15;46.60;;;;;;;11.29;96.22;100806.00;4737419;30;20435;-77
2021/04/11 14:53:45;;;;;;;13.70;11.48;;;;;;;11.36;96.49;100801.81;4735989;30;20040;-77
2021/04/11 14:56:49;;;;;;;14.00;9.85;;;;;;;11.43;96.05;100802.19;4737727;30;20048;-78
2021/04/11 15:00:36;;;;;;;12.00;10.02;;;;;;;11.45;96.28;100803.75;4735546;30;20045;-76
2021/04/11 15:03:46;;;;;;;11.10;9.68;;;;;;;11.36;95.38;100803.66;4734223;30;20053;-77
2021/04/11 15:07:11;;;;;;;16.10;10.82;;;;;;;11.35;95.43;100810.03;4742727;30;20404;-78
2021/04/11 15:10:16;;;;;;;19.30;15.23;;;;;;;11.32;95.77;100812.97;5052404;28;20358;-77
2021/04/11 15:13:42;;;;;;;21.10;16.75;;;;;;;11.30;95.60;100805.03;5044457;28;20037;-78